createdAt,value
2017-11-09T00:06:22.089Z,-60
2017-11-09T00:16:21.959Z,-59
2017-11-09T00:26:21.892Z,-58
2017-11-09T00:36:21.861Z,-60
2017-11-09T00:46:21.818Z,-59
2017-11-09T00:56:21.850Z,-59
2017-11-09T01:06:22.188Z,-60
2017-11-09T01:16:21.955Z,-57
2017-11-09T01:26:21.802Z,-59
2017-11-09T01:36:23.145Z,-61
2017-11-09T01:46:21.891Z,-59
2017-11-09T01:56:21.953Z,-60
2017-11-09T02:06:21.903Z,-60
2017-11-09T02:16:21.972Z,-59
2017-11-09T02:26:22.975Z,-60
2017-11-09T02:36:22.340Z,-60
2017-11-09T02:46:21.951Z,-59
2017-11-09T02:56:21.922Z,-60
2017-11-09T03:06:23.306Z,-60
2017-11-09T03:16:21.943Z,-60
2017-11-09T03:26:22.000Z,-60
2017-11-09T03:36:22.224Z,-59
2017-11-09T03:46:22.063Z,-60
2017-11-09T03:56:21.990Z,-60
2017-11-09T04:06:22.972Z,-59
2017-11-09T04:16:23.039Z,-60
2017-11-09T04:26:22.086Z,-61
2017-11-09T04:36:22.385Z,-60
2017-11-09T04:46:23.987Z,-61
2017-11-09T04:56:22.082Z,-60
2017-11-09T05:06:22.086Z,-60
2017-11-09T05:16:22.097Z,-60
2017-11-09T05:26:22.085Z,-60
2017-11-09T05:36:22.077Z,-60
2017-11-09T05:46:23.139Z,-57
2017-11-09T05:56:22.163Z,-61
2017-11-09T06:06:23.176Z,-61
2017-11-09T06:16:22.175Z,-60
2017-11-09T06:26:22.130Z,-60
2017-11-09T06:36:22.150Z,-59
2017-11-09T06:46:23.205Z,-60
2017-11-09T06:56:22.248Z,-59
2017-11-09T07:06:22.422Z,-59
2017-11-09T07:16:22.177Z,-59
2017-11-09T07:26:22.114Z,-59
2017-11-09T07:36:22.567Z,-59
2017-11-09T07:46:22.192Z,-59
2017-11-09T07:56:22.159Z,-59
2017-11-09T08:06:22.792Z,-59
2017-11-09T08:16:22.257Z,-60
2017-11-09T08:26:22.189Z,-58
2017-11-09T08:36:22.279Z,-60
2017-11-09T08:46:22.210Z,-59
2017-11-09T08:56:22.256Z,-59
2017-11-09T09:06:22.598Z,-59
2017-11-09T09:16:22.242Z,-59
2017-11-09T09:26:22.224Z,-60
2017-11-09T09:36:22.716Z,-58
2017-11-09T09:46:22.285Z,-59
2017-11-09T09:56:22.252Z,-59
2017-11-09T10:06:22.316Z,-60
2017-11-09T10:16:22.299Z,-59
2017-11-09T10:26:22.358Z,-58
2017-11-09T10:36:22.262Z,-58
2017-11-09T10:46:22.949Z,-59
2017-11-09T10:56:22.401Z,-60
2017-11-09T11:06:22.267Z,-58
2017-11-09T11:16:22.367Z,-59
2017-11-09T11:26:22.983Z,-58
2017-11-09T11:36:22.367Z,-59
2017-11-09T11:46:22.413Z,-59
2017-11-09T11:56:22.530Z,-60
2017-11-09T12:06:22.417Z,-58
2017-11-09T12:16:22.361Z,-59
2017-11-09T12:26:22.418Z,-59
2017-11-09T12:36:22.381Z,-60
2017-11-09T12:46:22.463Z,-59
2017-11-09T12:56:22.400Z,-60
2017-11-09T13:06:22.409Z,-60
2017-11-09T13:16:22.474Z,-59
2017-11-09T13:26:22.453Z,-60
2017-11-09T13:36:22.505Z,-60
2017-11-09T13:46:22.454Z,-58
2017-11-09T13:56:22.634Z,-59
2017-11-09T14:06:22.517Z,-60
2017-11-09T14:16:22.492Z,-60
2017-11-09T14:26:22.506Z,-60
2017-11-09T14:36:22.630Z,-62
2017-11-09T14:46:22.505Z,-59
2017-11-09T14:56:22.537Z,-59
2017-11-09T15:06:22.595Z,-57
2017-11-09T15:16:22.627Z,-59
2017-11-09T15:26:22.654Z,-59
2017-11-09T15:36:23.642Z,-63
2017-11-09T15:46:22.744Z,-62
2017-11-09T15:56:22.698Z,-69
2017-11-09T16:06:22.738Z,-65
2017-11-09T16:16:22.677Z,-64
2017-11-09T16:26:22.643Z,-63
2017-11-09T16:36:23.054Z,-67
2017-11-09T16:46:22.698Z,-63
2017-11-09T16:56:22.646Z,-60
2017-11-09T17:06:22.668Z,-62
2017-11-09T17:16:22.796Z,-62
2017-11-09T17:26:22.651Z,-61
2017-11-09T17:36:22.674Z,-61
2017-11-09T17:46:22.709Z,-62
2017-11-09T17:56:22.686Z,-61
2017-11-09T18:06:23.086Z,-59
2017-11-09T18:16:22.687Z,-59
2017-11-09T18:26:23.062Z,-61
2017-11-09T18:36:23.242Z,-61
2017-11-09T18:46:24.283Z,-63
2017-11-09T18:56:23.825Z,-60
2017-11-09T19:06:23.935Z,-66
2017-11-09T19:16:28.183Z,-59
2017-11-09T19:26:30.948Z,-63
2017-11-09T19:36:42.883Z,-63
2017-11-09T19:46:48.872Z,-66
2017-11-09T19:56:35.145Z,-65
2017-11-09T20:06:41.248Z,-68
2017-11-09T20:16:36.888Z,-65
2017-11-09T20:26:36.473Z,-63
2017-11-09T20:36:42.302Z,-64
2017-11-09T20:46:37.493Z,-61
2017-11-09T20:56:30.572Z,-63
2017-11-09T21:06:37.941Z,-63
2017-11-09T21:16:28.760Z,-63
2017-11-09T21:26:24.645Z,-62
2017-11-09T21:36:24.403Z,-70
2017-11-09T21:46:24.327Z,-63
2017-11-09T21:56:36.761Z,-68
2017-11-09T22:06:29.010Z,-66
2017-11-09T22:16:26.378Z,-64
2017-11-09T22:26:23.171Z,-66
2017-11-09T22:36:23.449Z,-67
2017-11-09T22:46:23.101Z,-58
2017-11-09T22:56:23.104Z,-59
2017-11-09T23:06:24.122Z,-60
2017-11-09T23:16:23.258Z,-60
2017-11-09T23:26:23.191Z,-61
2017-11-09T23:36:23.282Z,-60
2017-11-09T23:46:23.019Z,-60
2017-11-09T23:56:23.408Z,-58
